sensor_id;sensor_type;location;lat;lon;timestamp;P1;durP1;ratioP1;P2;durP2;ratioP2
10031;SDS011;5056;44.272;19.892;2023-04-15T00:00:11;22.40;;;13.70;;
10031;SDS011;5056;44.272;19.892;2023-04-15T00:02:39;23.13;;;14.70;;
10031;SDS011;5056;44.272;19.892;2023-04-15T00:05:07;24.90;;;15.97;;
10031;SDS011;5056;44.272;19.892;2023-04-15T00:07:35;26.27;;;17.70;;
10031;SDS011;5056;44.272;19.892;2023-04-15T00:10:04;25.37;;;16.30;;
10031;SDS011;5056;44.272;19.892;2023-04-15T00:12:33;26.23;;;16.87;;
10031;SDS011;5056;44.272;19.892;2023-04-15T00:15:04;24.43;;;15.97;;
10031;SDS011;5056;44.272;19.892;2023-04-15T00:17:32;21.60;;;15.93;;
10031;SDS011;5056;44.272;19.892;2023-04-15T00:20:00;22.20;;;15.93;;
10031;SDS011;5056;44.272;19.892;2023-04-15T00:22:28;28.17;;;17.83;;
10031;SDS011;5056;44.272;19.892;2023-04-15T00:24:55;22.37;;;15.93;;
10031;SDS011;5056;44.272;19.892;2023-04-15T00:27:22;22.77;;;16.00;;
10031;SDS011;5056;44.272;19.892;2023-04-15T00:29:50;21.97;;;15.50;;
10031;SDS011;5056;44.272;19.892;2023-04-15T00:32:23;21.37;;;15.00;;
10031;SDS011;5056;44.272;19.892;2023-04-15T00:34:50;26.40;;;17.00;;
10031;SDS011;5056;44.272;19.892;2023-04-15T00:37:17;26.77;;;17.33;;
10031;SDS011;5056;44.272;19.892;2023-04-15T00:39:44;21.63;;;15.40;;
10031;SDS011;5056;44.272;19.892;2023-04-15T00:42:11;32.90;;;18.20;;
10031;SDS011;5056;44.272;19.892;2023-04-15T00:44:38;28.40;;;16.77;;
10031;SDS011;5056;44.272;19.892;2023-04-15T00:47:06;24.17;;;14.73;;
10031;SDS011;5056;44.272;19.892;2023-04-15T00:49:36;20.13;;;13.90;;
10031;SDS011;5056;44.272;19.892;2023-04-15T00:52:04;19.83;;;13.03;;
10031;SDS011;5056;44.272;19.892;2023-04-15T00:54:31;18.53;;;13.27;;
10031;SDS011;5056;44.272;19.892;2023-04-15T00:56:58;19.60;;;14.63;;
10031;SDS011;5056;44.272;19.892;2023-04-15T00:59:28;20.87;;;13.07;;
10031;SDS011;5056;44.272;19.892;2023-04-15T01:01:55;19.53;;;12.73;;
10031;SDS011;5056;44.272;19.892;2023-04-15T01:04:23;15.37;;;11.40;;
10031;SDS011;5056;44.272;19.892;2023-04-15T01:06:53;16.07;;;9.77;;
10031;SDS011;5056;44.272;19.892;2023-04-15T01:09:23;13.20;;;9.47;;
10031;SDS011;5056;44.272;19.892;2023-04-15T01:11:51;15.00;;;9.83;;
10031;SDS011;5056;44.272;19.892;2023-04-15T01:14:19;12.23;;;9.17;;
10031;SDS011;5056;44.272;19.892;2023-04-15T01:16:47;14.40;;;9.50;;
10031;SDS011;5056;44.272;19.892;2023-04-15T01:19:15;15.57;;;9.67;;
10031;SDS011;5056;44.272;19.892;2023-04-15T01:21:43;12.43;;;8.47;;
10031;SDS011;5056;44.272;19.892;2023-04-15T01:24:14;11.17;;;8.63;;
10031;SDS011;5056;44.272;19.892;2023-04-15T01:26:46;13.90;;;9.63;;
10031;SDS011;5056;44.272;19.892;2023-04-15T01:29:14;11.90;;;8.67;;
10031;SDS011;5056;44.272;19.892;2023-04-15T01:31:48;13.60;;;10.10;;
10031;SDS011;5056;44.272;19.892;2023-04-15T01:34:16;13.07;;;10.37;;
10031;SDS011;5056;44.272;19.892;2023-04-15T01:36:43;16.40;;;9.90;;
10031;SDS011;5056;44.272;19.892;2023-04-15T01:39:13;16.70;;;9.53;;
10031;SDS011;5056;44.272;19.892;2023-04-15T01:41:41;15.27;;;9.27;;
10031;SDS011;5056;44.272;19.892;2023-04-15T01:44:13;13.90;;;9.80;;
10031;SDS011;5056;44.272;19.892;2023-04-15T01:46:40;15.87;;;8.93;;
10031;SDS011;5056;44.272;19.892;2023-04-15T01:49:08;11.40;;;8.33;;
10031;SDS011;5056;44.272;19.892;2023-04-15T01:51:36;10.17;;;7.47;;
10031;SDS011;5056;44.272;19.892;2023-04-15T01:54:04;10.73;;;7.60;;
10031;SDS011;5056;44.272;19.892;2023-04-15T01:56:31;11.67;;;7.23;;
10031;SDS011;5056;44.272;19.892;2023-04-15T01:59:01;9.07;;;7.43;;
10031;SDS011;5056;44.272;19.892;2023-04-15T02:01:32;9.83;;;7.53;;
10031;SDS011;5056;44.272;19.892;2023-04-15T02:04:01;8.70;;;7.17;;
10031;SDS011;5056;44.272;19.892;2023-04-15T02:06:28;9.47;;;7.00;;
10031;SDS011;5056;44.272;19.892;2023-04-15T02:08:56;8.77;;;7.13;;
10031;SDS011;5056;44.272;19.892;2023-04-15T02:11:29;9.70;;;7.87;;
10031;SDS011;5056;44.272;19.892;2023-04-15T02:13:57;11.33;;;8.40;;
10031;SDS011;5056;44.272;19.892;2023-04-15T02:16:24;11.50;;;8.47;;
10031;SDS011;5056;44.272;19.892;2023-04-15T02:18:53;13.47;;;9.10;;
10031;SDS011;5056;44.272;19.892;2023-04-15T02:21:20;12.63;;;8.77;;
10031;SDS011;5056;44.272;19.892;2023-04-15T02:23:47;12.97;;;9.03;;
10031;SDS011;5056;44.272;19.892;2023-04-15T02:26:15;15.73;;;10.17;;
10031;SDS011;5056;44.272;19.892;2023-04-15T02:28:42;13.67;;;9.47;;
10031;SDS011;5056;44.272;19.892;2023-04-15T02:31:09;11.10;;;7.93;;
10031;SDS011;5056;44.272;19.892;2023-04-15T02:33:36;7.50;;;6.33;;
10031;SDS011;5056;44.272;19.892;2023-04-15T02:36:07;9.20;;;5.70;;
10031;SDS011;5056;44.272;19.892;2023-04-15T02:38:40;8.27;;;6.03;;
10031;SDS011;5056;44.272;19.892;2023-04-15T02:41:07;9.00;;;5.93;;
10031;SDS011;5056;44.272;19.892;2023-04-15T02:43:37;6.83;;;5.50;;
10031;SDS011;5056;44.272;19.892;2023-04-15T02:48:47;6.10;;;5.17;;
10031;SDS011;5056;44.272;19.892;2023-04-15T02:51:15;7.60;;;6.03;;
10031;SDS011;5056;44.272;19.892;2023-04-15T02:53:44;8.63;;;5.80;;
10031;SDS011;5056;44.272;19.892;2023-04-15T02:56:12;7.80;;;6.70;;
10031;SDS011;5056;44.272;19.892;2023-04-15T02:58:40;9.73;;;7.87;;
10031;SDS011;5056;44.272;19.892;2023-04-15T03:01:07;14.63;;;8.80;;
10031;SDS011;5056;44.272;19.892;2023-04-15T03:03:34;9.43;;;8.10;;
10031;SDS011;5056;44.272;19.892;2023-04-15T03:06:03;12.03;;;9.73;;
10031;SDS011;5056;44.272;19.892;2023-04-15T03:08:34;16.07;;;10.50;;
10031;SDS011;5056;44.272;19.892;2023-04-15T03:11:01;16.13;;;10.90;;
10031;SDS011;5056;44.272;19.892;2023-04-15T03:13:28;13.83;;;9.60;;
10031;SDS011;5056;44.272;19.892;2023-04-15T03:15:57;13.63;;;9.10;;
10031;SDS011;5056;44.272;19.892;2023-04-15T03:18:24;10.73;;;8.57;;
10031;SDS011;5056;44.272;19.892;2023-04-15T03:20:51;11.93;;;8.20;;
10031;SDS011;5056;44.272;19.892;2023-04-15T03:23:18;13.13;;;8.70;;
10031;SDS011;5056;44.272;19.892;2023-04-15T03:25:46;10.80;;;7.60;;
10031;SDS011;5056;44.272;19.892;2023-04-15T03:28:13;8.70;;;6.33;;
10031;SDS011;5056;44.272;19.892;2023-04-15T03:30:40;10.03;;;6.70;;
10031;SDS011;5056;44.272;19.892;2023-04-15T03:33:09;11.60;;;8.07;;
10031;SDS011;5056;44.272;19.892;2023-04-15T03:35:36;11.70;;;8.03;;
10031;SDS011;5056;44.272;19.892;2023-04-15T03:38:04;9.60;;;6.43;;
10031;SDS011;5056;44.272;19.892;2023-04-15T03:40:31;9.40;;;6.73;;
10031;SDS011;5056;44.272;19.892;2023-04-15T03:43:00;10.17;;;7.63;;
10031;SDS011;5056;44.272;19.892;2023-04-15T03:45:27;12.53;;;7.70;;
10031;SDS011;5056;44.272;19.892;2023-04-15T03:47:54;10.07;;;7.00;;
10031;SDS011;5056;44.272;19.892;2023-04-15T03:50:21;9.70;;;6.80;;
10031;SDS011;5056;44.272;19.892;2023-04-15T03:52:48;10.13;;;6.63;;
10031;SDS011;5056;44.272;19.892;2023-04-15T03:55:16;10.40;;;7.77;;
10031;SDS011;5056;44.272;19.892;2023-04-15T03:57:43;14.23;;;10.00;;
10031;SDS011;5056;44.272;19.892;2023-04-15T04:00:13;15.53;;;10.97;;
10031;SDS011;5056;44.272;19.892;2023-04-15T04:02:41;14.40;;;10.93;;
10031;SDS011;5056;44.272;19.892;2023-04-15T04:05:08;14.13;;;10.57;;
10031;SDS011;5056;44.272;19.892;2023-04-15T04:07:35;14.27;;;9.80;;
10031;SDS011;5056;44.272;19.892;2023-04-15T04:10:02;14.90;;;10.37;;
10031;SDS011;5056;44.272;19.892;2023-04-15T04:12:30;12.47;;;9.10;;
10031;SDS011;5056;44.272;19.892;2023-04-15T04:14:56;13.93;;;10.00;;
10031;SDS011;5056;44.272;19.892;2023-04-15T04:17:25;15.73;;;9.80;;
10031;SDS011;5056;44.272;19.892;2023-04-15T04:19:52;12.63;;;9.53;;
10031;SDS011;5056;44.272;19.892;2023-04-15T04:22:22;13.17;;;9.40;;
10031;SDS011;5056;44.272;19.892;2023-04-15T04:24:50;11.70;;;9.40;;
10031;SDS011;5056;44.272;19.892;2023-04-15T04:27:17;10.93;;;7.77;;
10031;SDS011;5056;44.272;19.892;2023-04-15T04:29:44;8.23;;;6.97;;
10031;SDS011;5056;44.272;19.892;2023-04-15T04:32:14;9.37;;;7.70;;
10031;SDS011;5056;44.272;19.892;2023-04-15T04:34:42;10.47;;;7.27;;
10031;SDS011;5056;44.272;19.892;2023-04-15T04:37:09;13.20;;;9.43;;
10031;SDS011;5056;44.272;19.892;2023-04-15T04:39:36;15.87;;;10.60;;
10031;SDS011;5056;44.272;19.892;2023-04-15T04:42:03;14.27;;;10.93;;
10031;SDS011;5056;44.272;19.892;2023-04-15T04:44:30;24.27;;;15.87;;
10031;SDS011;5056;44.272;19.892;2023-04-15T04:46:57;22.53;;;16.07;;
10031;SDS011;5056;44.272;19.892;2023-04-15T04:49:25;20.40;;;15.50;;
10031;SDS011;5056;44.272;19.892;2023-04-15T04:51:54;20.63;;;16.03;;
10031;SDS011;5056;44.272;19.892;2023-04-15T04:54:21;25.80;;;18.73;;
10031;SDS011;5056;44.272;19.892;2023-04-15T04:56:48;22.77;;;16.90;;
10031;SDS011;5056;44.272;19.892;2023-04-15T04:59:15;29.67;;;20.90;;
10031;SDS011;5056;44.272;19.892;2023-04-15T05:01:42;30.33;;;20.90;;
10031;SDS011;5056;44.272;19.892;2023-04-15T05:04:10;24.73;;;16.83;;
10031;SDS011;5056;44.272;19.892;2023-04-15T05:06:37;19.27;;;14.17;;
10031;SDS011;5056;44.272;19.892;2023-04-15T05:09:05;17.63;;;13.40;;
10031;SDS011;5056;44.272;19.892;2023-04-15T05:11:32;20.60;;;15.03;;
10031;SDS011;5056;44.272;19.892;2023-04-15T05:14:00;23.83;;;18.47;;
10031;SDS011;5056;44.272;19.892;2023-04-15T05:16:26;20.53;;;15.83;;
10031;SDS011;5056;44.272;19.892;2023-04-15T05:18:53;20.00;;;15.33;;
10031;SDS011;5056;44.272;19.892;2023-04-15T05:21:21;20.10;;;16.07;;
10031;SDS011;5056;44.272;19.892;2023-04-15T05:23:49;22.77;;;17.43;;
10031;SDS011;5056;44.272;19.892;2023-04-15T05:26:17;25.80;;;17.97;;
10031;SDS011;5056;44.272;19.892;2023-04-15T05:28:45;22.47;;;17.97;;
10031;SDS011;5056;44.272;19.892;2023-04-15T05:31:14;31.60;;;20.43;;
10031;SDS011;5056;44.272;19.892;2023-04-15T05:33:41;29.77;;;20.97;;
10031;SDS011;5056;44.272;19.892;2023-04-15T05:36:08;35.07;;;24.87;;
10031;SDS011;5056;44.272;19.892;2023-04-15T05:38:35;29.53;;;20.97;;
10031;SDS011;5056;44.272;19.892;2023-04-15T05:41:02;26.33;;;19.40;;
10031;SDS011;5056;44.272;19.892;2023-04-15T05:43:45;24.33;;;19.10;;
10031;SDS011;5056;44.272;19.892;2023-04-15T05:48:56;27.93;;;20.47;;
10031;SDS011;5056;44.272;19.892;2023-04-15T05:51:23;30.33;;;21.30;;
10031;SDS011;5056;44.272;19.892;2023-04-15T05:53:50;32.37;;;21.10;;
10031;SDS011;5056;44.272;19.892;2023-04-15T05:56:18;43.37;;;26.17;;
10031;SDS011;5056;44.272;19.892;2023-04-15T05:58:47;34.43;;;25.37;;
10031;SDS011;5056;44.272;19.892;2023-04-15T06:01:26;30.63;;;22.20;;
10031;SDS011;5056;44.272;19.892;2023-04-15T06:03:53;38.97;;;29.80;;
10031;SDS011;5056;44.272;19.892;2023-04-15T06:06:20;44.80;;;34.35;;
10031;SDS011;5056;44.272;19.892;2023-04-15T06:08:47;25.85;;;18.27;;
10031;SDS011;5056;44.272;19.892;2023-04-15T06:11:14;25.60;;;19.55;;
10031;SDS011;5056;44.272;19.892;2023-04-15T06:13:41;23.52;;;18.48;;
10031;SDS011;5056;44.272;19.892;2023-04-15T06:16:10;21.33;;;16.85;;
10031;SDS011;5056;44.272;19.892;2023-04-15T06:24:39;80.97;;;73.82;;
10031;SDS011;5056;44.272;19.892;2023-04-15T06:27:06;40.90;;;36.55;;
10031;SDS011;5056;44.272;19.892;2023-04-15T06:29:44;31.13;;;26.65;;
10031;SDS011;5056;44.272;19.892;2023-04-15T06:32:14;23.83;;;19.70;;
10031;SDS011;5056;44.272;19.892;2023-04-15T06:34:41;25.98;;;23.33;;
10031;SDS011;5056;44.272;19.892;2023-04-15T06:37:08;21.25;;;19.20;;
10031;SDS011;5056;44.272;19.892;2023-04-15T06:39:40;18.15;;;14.80;;
10031;SDS011;5056;44.272;19.892;2023-04-15T06:42:08;10.60;;;9.50;;
10031;SDS011;5056;44.272;19.892;2023-04-15T06:44:36;9.88;;;7.70;;
10031;SDS011;5056;44.272;19.892;2023-04-15T06:47:03;9.40;;;6.43;;
10031;SDS011;5056;44.272;19.892;2023-04-15T06:49:33;5.47;;;4.53;;
10031;SDS011;5056;44.272;19.892;2023-04-15T06:52:01;3.75;;;3.30;;
10031;SDS011;5056;44.272;19.892;2023-04-15T06:54:29;2.58;;;2.38;;
10031;SDS011;5056;44.272;19.892;2023-04-15T06:56:57;4.75;;;3.45;;
10031;SDS011;5056;44.272;19.892;2023-04-15T06:59:25;4.70;;;4.30;;
10031;SDS011;5056;44.272;19.892;2023-04-15T07:01:52;3.55;;;3.25;;
10031;SDS011;5056;44.272;19.892;2023-04-15T07:04:19;3.88;;;3.50;;
10031;SDS011;5056;44.272;19.892;2023-04-15T07:06:49;3.75;;;3.40;;
10031;SDS011;5056;44.272;19.892;2023-04-15T07:09:16;2.92;;;2.70;;
10031;SDS011;5056;44.272;19.892;2023-04-15T07:11:44;2.85;;;2.10;;
10031;SDS011;5056;44.272;19.892;2023-04-15T07:14:11;3.47;;;2.25;;
10031;SDS011;5056;44.272;19.892;2023-04-15T07:16:38;3.65;;;3.10;;
10031;SDS011;5056;44.272;19.892;2023-04-15T07:19:05;2.70;;;2.45;;
10031;SDS011;5056;44.272;19.892;2023-04-15T07:21:32;3.00;;;2.20;;
10031;SDS011;5056;44.272;19.892;2023-04-15T07:24:02;4.55;;;2.30;;
10031;SDS011;5056;44.272;19.892;2023-04-15T07:26:29;2.38;;;1.65;;
10031;SDS011;5056;44.272;19.892;2023-04-15T07:28:56;5.22;;;3.10;;
10031;SDS011;5056;44.272;19.892;2023-04-15T07:31:23;2.85;;;1.83;;
10031;SDS011;5056;44.272;19.892;2023-04-15T07:33:51;3.47;;;2.13;;
10031;SDS011;5056;44.272;19.892;2023-04-15T07:36:20;2.58;;;2.38;;
10031;SDS011;5056;44.272;19.892;2023-04-15T07:38:47;2.55;;;1.77;;
10031;SDS011;5056;44.272;19.892;2023-04-15T07:41:17;2.30;;;2.10;;
10031;SDS011;5056;44.272;19.892;2023-04-15T07:43:44;1.83;;;1.73;;
10031;SDS011;5056;44.272;19.892;2023-04-15T07:46:12;3.15;;;1.77;;
10031;SDS011;5056;44.272;19.892;2023-04-15T07:48:39;1.88;;;1.77;;
10031;SDS011;5056;44.272;19.892;2023-04-15T07:51:06;1.70;;;1.60;;
10031;SDS011;5056;44.272;19.892;2023-04-15T07:53:35;1.65;;;1.55;;
10031;SDS011;5056;44.272;19.892;2023-04-15T07:56:02;2.03;;;1.85;;
10031;SDS011;5056;44.272;19.892;2023-04-15T07:58:31;2.03;;;1.92;;
10031;SDS011;5056;44.272;19.892;2023-04-15T08:01:01;5.90;;;3.00;;
10031;SDS011;5056;44.272;19.892;2023-04-15T08:03:29;2.60;;;2.40;;
10031;SDS011;5056;44.272;19.892;2023-04-15T08:05:57;2.72;;;2.60;;
10031;SDS011;5056;44.272;19.892;2023-04-15T08:08:23;3.75;;;2.38;;
10031;SDS011;5056;44.272;19.892;2023-04-15T08:10:51;2.60;;;1.95;;
10031;SDS011;5056;44.272;19.892;2023-04-15T08:13:24;2.20;;;2.00;;
10031;SDS011;5056;44.272;19.892;2023-04-15T08:18:46;3.00;;;2.53;;
10031;SDS011;5056;44.272;19.892;2023-04-15T08:21:14;3.50;;;2.40;;
10031;SDS011;5056;44.272;19.892;2023-04-15T08:23:41;2.47;;;2.28;;
10031;SDS011;5056;44.272;19.892;2023-04-15T08:26:09;2.40;;;1.85;;
10031;SDS011;5056;44.272;19.892;2023-04-15T08:28:37;4.22;;;3.08;;
10031;SDS011;5056;44.272;19.892;2023-04-15T08:31:05;2.80;;;2.60;;
10031;SDS011;5056;44.272;19.892;2023-04-15T08:33:33;2.10;;;1.90;;
10031;SDS011;5056;44.272;19.892;2023-04-15T08:36:01;3.20;;;1.45;;
10031;SDS011;5056;44.272;19.892;2023-04-15T08:38:28;1.75;;;1.42;;
10031;SDS011;5056;44.272;19.892;2023-04-15T08:40:55;1.70;;;1.23;;
10031;SDS011;5056;44.272;19.892;2023-04-15T08:43:26;1.42;;;1.05;;
10031;SDS011;5056;44.272;19.892;2023-04-15T08:45:55;2.05;;;1.48;;
10031;SDS011;5056;44.272;19.892;2023-04-15T08:48:27;1.88;;;1.15;;
10031;SDS011;5056;44.272;19.892;2023-04-15T08:50:57;2.80;;;2.63;;
10031;SDS011;5056;44.272;19.892;2023-04-15T08:53:24;3.10;;;2.20;;
10031;SDS011;5056;44.272;19.892;2023-04-15T08:55:52;4.28;;;2.25;;
10031;SDS011;5056;44.272;19.892;2023-04-15T08:58:21;2.75;;;1.80;;
10031;SDS011;5056;44.272;19.892;2023-04-15T09:00:48;1.25;;;0.88;;
10031;SDS011;5056;44.272;19.892;2023-04-15T09:03:15;1.30;;;1.20;;
10031;SDS011;5056;44.272;19.892;2023-04-15T09:05:43;1.40;;;1.30;;
10031;SDS011;5056;44.272;19.892;2023-04-15T09:08:14;2.30;;;1.83;;
10031;SDS011;5056;44.272;19.892;2023-04-15T09:10:41;3.70;;;1.92;;
10031;SDS011;5056;44.272;19.892;2023-04-15T09:13:09;1.42;;;1.30;;
10031;SDS011;5056;44.272;19.892;2023-04-15T09:15:37;3.05;;;2.80;;
10031;SDS011;5056;44.272;19.892;2023-04-15T09:18:06;2.80;;;2.60;;
10031;SDS011;5056;44.272;19.892;2023-04-15T09:20:37;4.97;;;2.60;;
10031;SDS011;5056;44.272;19.892;2023-04-15T09:23:14;2.58;;;2.38;;
10031;SDS011;5056;44.272;19.892;2023-04-15T09:25:41;2.28;;;1.60;;
10031;SDS011;5056;44.272;19.892;2023-04-15T09:28:08;3.08;;;1.92;;
10031;SDS011;5056;44.272;19.892;2023-04-15T09:30:36;2.33;;;1.95;;
10031;SDS011;5056;44.272;19.892;2023-04-15T09:33:03;2.05;;;1.70;;
10031;SDS011;5056;44.272;19.892;2023-04-15T09:35:33;1.58;;;1.48;;
10031;SDS011;5056;44.272;19.892;2023-04-15T09:38:01;2.28;;;1.48;;
10031;SDS011;5056;44.272;19.892;2023-04-15T09:40:35;1.65;;;1.55;;
10031;SDS011;5056;44.272;19.892;2023-04-15T09:43:03;1.60;;;1.50;;
10031;SDS011;5056;44.272;19.892;2023-04-15T09:45:31;2.03;;;1.70;;
10031;SDS011;5056;44.272;19.892;2023-04-15T09:47:59;1.95;;;1.85;;
10031;SDS011;5056;44.272;19.892;2023-04-15T09:50:41;5.03;;;2.10;;
10031;SDS011;5056;44.272;19.892;2023-04-15T09:53:11;2.10;;;1.85;;
10031;SDS011;5056;44.272;19.892;2023-04-15T09:55:45;3.05;;;2.05;;
10031;SDS011;5056;44.272;19.892;2023-04-15T09:58:22;2.47;;;2.10;;
10031;SDS011;5056;44.272;19.892;2023-04-15T10:00:52;2.95;;;1.85;;
10031;SDS011;5056;44.272;19.892;2023-04-15T10:03:20;2.88;;;1.77;;
10031;SDS011;5056;44.272;19.892;2023-04-15T10:05:49;2.08;;;1.88;;
10031;SDS011;5056;44.272;19.892;2023-04-15T10:08:18;1.67;;;1.58;;
10031;SDS011;5056;44.272;19.892;2023-04-15T10:10:52;1.48;;;1.38;;
10031;SDS011;5056;44.272;19.892;2023-04-15T10:13:20;1.45;;;1.35;;
10031;SDS011;5056;44.272;19.892;2023-04-15T10:15:48;2.30;;;1.70;;
10031;SDS011;5056;44.272;19.892;2023-04-15T10:18:18;2.55;;;1.58;;
10031;SDS011;5056;44.272;19.892;2023-04-15T10:20:47;2.45;;;1.77;;
10031;SDS011;5056;44.272;19.892;2023-04-15T10:23:15;2.25;;;1.58;;
10031;SDS011;5056;44.272;19.892;2023-04-15T10:25:43;1.52;;;1.42;;
10031;SDS011;5056;44.272;19.892;2023-04-15T10:28:15;1.35;;;1.33;;
10031;SDS011;5056;44.272;19.892;2023-04-15T10:30:42;3.55;;;1.67;;
10031;SDS011;5056;44.272;19.892;2023-04-15T10:33:10;1.48;;;1.38;;
10031;SDS011;5056;44.272;19.892;2023-04-15T10:35:37;1.23;;;1.23;;
10031;SDS011;5056;44.272;19.892;2023-04-15T10:41:13;1.10;;;1.00;;
10031;SDS011;5056;44.272;19.892;2023-04-15T10:43:46;2.28;;;2.08;;
10031;SDS011;5056;44.272;19.892;2023-04-15T10:46:17;3.38;;;2.33;;
10031;SDS011;5056;44.272;19.892;2023-04-15T10:48:46;2.13;;;2.03;;
10031;SDS011;5056;44.272;19.892;2023-04-15T10:51:15;2.13;;;1.90;;
10031;SDS011;5056;44.272;19.892;2023-04-15T10:53:43;2.05;;;1.95;;
10031;SDS011;5056;44.272;19.892;2023-04-15T10:56:09;2.13;;;1.70;;
10031;SDS011;5056;44.272;19.892;2023-04-15T10:58:40;3.05;;;2.10;;
10031;SDS011;5056;44.272;19.892;2023-04-15T11:01:08;4.63;;;3.97;;
10031;SDS011;5056;44.272;19.892;2023-04-15T11:03:36;2.25;;;2.15;;
10031;SDS011;5056;44.272;19.892;2023-04-15T11:06:04;2.33;;;2.13;;
10031;SDS011;5056;44.272;19.892;2023-04-15T11:14:32;1.88;;;1.77;;
10031;SDS011;5056;44.272;19.892;2023-04-15T11:17:01;2.30;;;2.10;;
10031;SDS011;5056;44.272;19.892;2023-04-15T11:19:39;2.20;;;2.00;;
10031;SDS011;5056;44.272;19.892;2023-04-15T11:22:26;2.15;;;1.80;;
10031;SDS011;5056;44.272;19.892;2023-04-15T11:24:53;2.08;;;1.90;;
10031;SDS011;5056;44.272;19.892;2023-04-15T11:27:20;2.03;;;1.92;;
10031;SDS011;5056;44.272;19.892;2023-04-15T11:29:50;2.95;;;1.60;;
10031;SDS011;5056;44.272;19.892;2023-04-15T11:32:19;1.88;;;1.52;;
10031;SDS011;5056;44.272;19.892;2023-04-15T11:34:47;1.73;;;1.67;;
10031;SDS011;5056;44.272;19.892;2023-04-15T11:37:14;2.53;;;2.33;;
10031;SDS011;5056;44.272;19.892;2023-04-15T11:39:41;1.92;;;1.83;;
10031;SDS011;5056;44.272;19.892;2023-04-15T11:42:15;1.63;;;1.52;;
10031;SDS011;5056;44.272;19.892;2023-04-15T11:44:42;1.95;;;1.85;;
10031;SDS011;5056;44.272;19.892;2023-04-15T11:47:22;4.25;;;2.60;;
10031;SDS011;5056;44.272;19.892;2023-04-15T11:49:49;2.05;;;1.95;;
10031;SDS011;5056;44.272;19.892;2023-04-15T11:52:16;3.53;;;2.80;;
10031;SDS011;5056;44.272;19.892;2023-04-15T11:54:44;2.17;;;2.00;;
10031;SDS011;5056;44.272;19.892;2023-04-15T11:57:11;2.63;;;2.42;;
10031;SDS011;5056;44.272;19.892;2023-04-15T11:59:40;2.55;;;2.35;;
10031;SDS011;5056;44.272;19.892;2023-04-15T12:02:10;2.78;;;2.10;;
10031;SDS011;5056;44.272;19.892;2023-04-15T12:04:41;2.00;;;1.90;;
10031;SDS011;5056;44.272;19.892;2023-04-15T12:07:08;1.20;;;1.17;;
10031;SDS011;5056;44.272;19.892;2023-04-15T12:09:36;2.47;;;2.30;;
10031;SDS011;5056;44.272;19.892;2023-04-15T12:12:04;2.05;;;1.85;;
10031;SDS011;5056;44.272;19.892;2023-04-15T12:14:32;1.85;;;1.75;;
10031;SDS011;5056;44.272;19.892;2023-04-15T12:17:00;2.35;;;2.08;;
10031;SDS011;5056;44.272;19.892;2023-04-15T12:19:29;2.55;;;2.22;;
10031;SDS011;5056;44.272;19.892;2023-04-15T12:22:04;2.15;;;2.05;;
10031;SDS011;5056;44.272;19.892;2023-04-15T12:24:32;3.03;;;2.03;;
10031;SDS011;5056;44.272;19.892;2023-04-15T12:27:03;1.90;;;1.80;;
10031;SDS011;5056;44.272;19.892;2023-04-15T12:29:31;2.22;;;1.77;;
10031;SDS011;5056;44.272;19.892;2023-04-15T12:32:03;2.65;;;2.45;;
10031;SDS011;5056;44.272;19.892;2023-04-15T12:34:33;2.83;;;2.63;;
10031;SDS011;5056;44.272;19.892;2023-04-15T12:37:03;2.95;;;2.75;;
10031;SDS011;5056;44.272;19.892;2023-04-15T12:39:34;2.78;;;2.63;;
10031;SDS011;5056;44.272;19.892;2023-04-15T12:42:03;2.42;;;2.22;;
10031;SDS011;5056;44.272;19.892;2023-04-15T12:44:32;2.72;;;2.53;;
10031;SDS011;5056;44.272;19.892;2023-04-15T12:47:00;1.98;;;1.88;;
10031;SDS011;5056;44.272;19.892;2023-04-15T12:49:29;1.88;;;1.67;;
10031;SDS011;5056;44.272;19.892;2023-04-15T12:51:57;2.45;;;2.25;;
10031;SDS011;5056;44.272;19.892;2023-04-15T12:54:33;3.63;;;3.33;;
10031;SDS011;5056;44.272;19.892;2023-04-15T12:57:00;3.67;;;2.38;;
10031;SDS011;5056;44.272;19.892;2023-04-15T12:59:29;3.13;;;2.92;;
10031;SDS011;5056;44.272;19.892;2023-04-15T13:01:58;2.60;;;2.40;;
10031;SDS011;5056;44.272;19.892;2023-04-15T13:04:26;2.10;;;2.00;;
10031;SDS011;5056;44.272;19.892;2023-04-15T13:06:54;2.55;;;2.33;;
10031;SDS011;5056;44.272;19.892;2023-04-15T13:09:21;2.17;;;1.95;;
10031;SDS011;5056;44.272;19.892;2023-04-15T13:11:51;2.15;;;2.05;;
10031;SDS011;5056;44.272;19.892;2023-04-15T13:14:18;2.13;;;2.03;;
10031;SDS011;5056;44.272;19.892;2023-04-15T13:16:45;1.92;;;1.83;;
10031;SDS011;5056;44.272;19.892;2023-04-15T13:19:12;2.45;;;2.25;;
10031;SDS011;5056;44.272;19.892;2023-04-15T13:21:39;1.67;;;1.50;;
10031;SDS011;5056;44.272;19.892;2023-04-15T13:24:06;1.90;;;1.80;;
10031;SDS011;5056;44.272;19.892;2023-04-15T13:26:34;3.00;;;2.40;;
10031;SDS011;5056;44.272;19.892;2023-04-15T13:29:03;3.20;;;2.00;;
10031;SDS011;5056;44.272;19.892;2023-04-15T13:31:31;1.67;;;1.58;;
10031;SDS011;5056;44.272;19.892;2023-04-15T13:33:58;2.13;;;2.03;;
10031;SDS011;5056;44.272;19.892;2023-04-15T13:36:25;1.88;;;1.77;;
10031;SDS011;5056;44.272;19.892;2023-04-15T13:38:52;1.73;;;1.63;;
10031;SDS011;5056;44.272;19.892;2023-04-15T13:41:21;1.88;;;1.77;;
10031;SDS011;5056;44.272;19.892;2023-04-15T13:43:48;1.65;;;1.55;;
10031;SDS011;5056;44.272;19.892;2023-04-15T13:46:17;1.55;;;1.45;;
10031;SDS011;5056;44.272;19.892;2023-04-15T13:48:44;1.63;;;1.60;;
10031;SDS011;5056;44.272;19.892;2023-04-15T13:51:11;1.90;;;1.80;;
10031;SDS011;5056;44.272;19.892;2023-04-15T13:53:38;2.10;;;2.00;;
10031;SDS011;5056;44.272;19.892;2023-04-15T13:56:05;1.98;;;1.88;;
10031;SDS011;5056;44.272;19.892;2023-04-15T13:58:33;1.73;;;1.63;;
10031;SDS011;5056;44.272;19.892;2023-04-15T14:01:03;1.60;;;1.50;;
10031;SDS011;5056;44.272;19.892;2023-04-15T14:03:34;1.40;;;1.40;;
10031;SDS011;5056;44.272;19.892;2023-04-15T14:06:02;3.00;;;2.80;;
10031;SDS011;5056;44.272;19.892;2023-04-15T14:08:30;2.83;;;2.63;;
10031;SDS011;5056;44.272;19.892;2023-04-15T14:10:57;4.85;;;3.58;;
10031;SDS011;5056;44.272;19.892;2023-04-15T14:13:24;4.03;;;3.72;;
10031;SDS011;5056;44.272;19.892;2023-04-15T14:15:51;4.85;;;4.25;;
10031;SDS011;5056;44.272;19.892;2023-04-15T14:18:17;4.57;;;4.15;;
10031;SDS011;5056;44.272;19.892;2023-04-15T14:20:46;5.97;;;5.38;;
10031;SDS011;5056;44.272;19.892;2023-04-15T14:23:12;3.72;;;3.42;;
10031;SDS011;5056;44.272;19.892;2023-04-15T14:25:40;4.15;;;3.85;;
10031;SDS011;5056;44.272;19.892;2023-04-15T14:28:07;3.33;;;3.03;;
10031;SDS011;5056;44.272;19.892;2023-04-15T14:30:35;5.03;;;4.53;;
10031;SDS011;5056;44.272;19.892;2023-04-15T14:33:02;4.00;;;3.65;;
10031;SDS011;5056;44.272;19.892;2023-04-15T14:35:29;3.65;;;3.35;;
10031;SDS011;5056;44.272;19.892;2023-04-15T14:37:58;8.40;;;3.38;;
10031;SDS011;5056;44.272;19.892;2023-04-15T14:40:25;3.42;;;3.13;;
10031;SDS011;5056;44.272;19.892;2023-04-15T14:42:52;3.92;;;3.53;;
10031;SDS011;5056;44.272;19.892;2023-04-15T14:45:19;4.00;;;3.60;;
10031;SDS011;5056;44.272;19.892;2023-04-15T14:47:46;5.22;;;4.72;;
10031;SDS011;5056;44.272;19.892;2023-04-15T14:50:13;5.75;;;5.25;;
10031;SDS011;5056;44.272;19.892;2023-04-15T14:52:41;7.20;;;5.05;;
10031;SDS011;5056;44.272;19.892;2023-04-15T14:55:10;6.10;;;5.47;;
10031;SDS011;5056;44.272;19.892;2023-04-15T14:57:38;6.20;;;5.60;;
10031;SDS011;5056;44.272;19.892;2023-04-15T15:00:08;4.13;;;3.67;;
10031;SDS011;5056;44.272;19.892;2023-04-15T15:02:36;3.47;;;2.92;;
10031;SDS011;5056;44.272;19.892;2023-04-15T15:05:04;3.38;;;3.08;;
10031;SDS011;5056;44.272;19.892;2023-04-15T15:07:31;3.45;;;3.22;;
10031;SDS011;5056;44.272;19.892;2023-04-15T15:09:58;3.55;;;3.25;;